createdAt,value
2018-12-24T00:00:12.281Z,11.90
2018-12-24T00:01:12.273Z,11.10
2018-12-24T00:02:12.201Z,11.50
2018-12-24T00:03:12.159Z,10.20
2018-12-24T00:04:12.117Z,9.90
2018-12-24T00:05:12.073Z,10.50
2018-12-24T00:06:12.016Z,9.90
2018-12-24T00:07:11.995Z,10.60
2018-12-24T00:08:11.931Z,10.00
2018-12-24T00:09:11.889Z,11.20
2018-12-24T00:10:11.869Z,11.50
2018-12-24T00:11:11.804Z,12.50
2018-12-24T00:12:11.776Z,12.40
2018-12-24T00:13:11.714Z,13.40
2018-12-24T00:14:11.670Z,13.80
2018-12-24T00:15:11.631Z,13.90
2018-12-24T00:16:11.608Z,13.90
2018-12-24T00:17:11.653Z,14.70
2018-12-24T00:18:11.488Z,14.80
2018-12-24T00:19:11.446Z,14.50
2018-12-24T00:20:11.399Z,15.70
2018-12-24T00:21:11.391Z,17.20
2018-12-24T00:22:11.321Z,17.80
2018-12-24T00:23:11.304Z,17.30
2018-12-24T00:24:11.234Z,17.90
2018-12-24T00:25:11.193Z,17.50
2018-12-24T00:26:11.135Z,17.70
2018-12-24T00:27:11.097Z,16.40
2018-12-24T00:28:11.060Z,17.30
2018-12-24T00:29:11.055Z,16.60
2018-12-24T00:30:10.958Z,15.50
2018-12-24T00:31:10.917Z,15.90
2018-12-24T00:32:10.871Z,16.20
2018-12-24T00:33:10.832Z,14.90
2018-12-24T00:34:10.818Z,15.00
2018-12-24T00:35:10.752Z,13.60
2018-12-24T00:36:10.702Z,13.20
2018-12-24T00:37:10.660Z,13.80
2018-12-24T00:38:10.607Z,13.70
2018-12-24T00:39:10.596Z,13.10
2018-12-24T00:40:10.519Z,13.60
2018-12-24T00:41:10.479Z,14.10
2018-12-24T00:42:15.866Z,12.90
2018-12-24T00:43:10.399Z,12.80
2018-12-24T00:44:10.373Z,11.70
2018-12-24T00:45:10.305Z,12.10
2018-12-24T00:46:10.260Z,11.90
2018-12-24T00:47:10.222Z,11.40
2018-12-24T00:48:10.173Z,11.80
2018-12-24T00:49:10.179Z,11.80
2018-12-24T00:50:10.102Z,12.10
2018-12-24T00:51:10.043Z,11.70
2018-12-24T00:52:09.987Z,12.00
2018-12-24T00:53:09.952Z,12.10
2018-12-24T00:54:09.907Z,12.30
2018-12-24T00:55:09.886Z,12.00
2018-12-24T00:56:09.862Z,12.00
2018-12-24T00:57:09.779Z,12.50
2018-12-24T00:58:09.724Z,12.40
2018-12-24T00:59:09.690Z,12.50
2018-12-24T01:00:09.672Z,13.40
2018-12-24T01:01:09.603Z,13.30
2018-12-24T01:02:09.547Z,12.80
2018-12-24T01:03:09.533Z,13.50
2018-12-24T01:04:09.457Z,13.60
2018-12-24T01:05:09.426Z,13.30
2018-12-24T01:06:09.385Z,13.10
2018-12-24T01:07:09.340Z,13.10
2018-12-24T01:08:09.296Z,13.20
2018-12-24T01:09:09.270Z,13.30
2018-12-24T01:10:09.192Z,13.10
2018-12-24T01:11:09.156Z,13.00
2018-12-24T01:12:09.109Z,12.70
2018-12-24T01:13:09.066Z,13.10
2018-12-24T01:14:09.060Z,13.00
2018-12-24T01:15:08.983Z,13.20
2018-12-24T01:16:08.929Z,14.10
2018-12-24T01:17:08.893Z,14.60
2018-12-24T01:18:08.854Z,14.90
2018-12-24T01:19:08.810Z,15.30
2018-12-24T01:20:08.787Z,15.50
2018-12-24T01:21:08.722Z,15.50
2018-12-24T01:22:08.667Z,15.20
2018-12-24T01:23:08.656Z,15.60
2018-12-24T01:24:08.576Z,15.50
2018-12-24T01:25:08.535Z,15.70
2018-12-24T01:26:08.495Z,16.20
2018-12-24T01:27:08.454Z,15.10
2018-12-24T01:28:08.418Z,16.00
2018-12-24T01:29:08.398Z,16.30
2018-12-24T01:30:08.313Z,15.90
2018-12-24T01:31:08.274Z,16.20
2018-12-24T01:32:08.233Z,15.70
2018-12-24T01:33:08.192Z,16.00
2018-12-24T01:34:08.145Z,16.20
2018-12-24T01:35:08.115Z,15.30
2018-12-24T01:36:08.047Z,14.80
2018-12-24T01:37:08.032Z,16.00
2018-12-24T01:38:07.967Z,15.40
2018-12-24T01:39:07.927Z,15.00
2018-12-24T01:40:07.883Z,14.50
2018-12-24T01:41:07.842Z,14.70
2018-12-24T01:42:07.816Z,14.00
2018-12-24T01:43:07.747Z,14.10
2018-12-24T01:44:07.698Z,14.60
2018-12-24T01:45:07.652Z,14.60
2018-12-24T01:46:07.615Z,15.10
2018-12-24T01:47:07.574Z,15.60
2018-12-24T01:48:07.543Z,14.70
2018-12-24T01:49:07.480Z,15.50
2018-12-24T01:50:07.445Z,16.60
2018-12-24T01:51:07.401Z,16.80
2018-12-24T01:52:07.354Z,16.10
2018-12-24T01:53:07.338Z,16.50
2018-12-24T01:54:07.261Z,17.30
2018-12-24T01:55:07.216Z,17.50
2018-12-24T01:56:07.168Z,17.90
2018-12-24T01:57:07.129Z,18.40
2018-12-24T01:58:07.088Z,18.70
2018-12-24T01:59:07.186Z,19.30
2018-12-24T02:00:06.999Z,19.70
2018-12-24T02:01:06.958Z,20.00
2018-12-24T02:02:06.909Z,19.90
2018-12-24T02:03:06.863Z,21.20
2018-12-24T02:04:06.821Z,21.10
2018-12-24T02:05:06.817Z,21.50
2018-12-24T02:06:06.731Z,21.00
2018-12-24T02:07:06.689Z,21.60
2018-12-24T02:08:06.642Z,20.90
2018-12-24T02:09:06.601Z,20.40
2018-12-24T02:10:06.563Z,20.80
2018-12-24T02:11:06.543Z,21.50
2018-12-24T02:12:06.473Z,21.40
2018-12-24T02:13:06.429Z,20.80
2018-12-24T02:14:06.401Z,20.10
2018-12-24T02:15:06.336Z,19.40
2018-12-24T02:16:06.314Z,19.10
2018-12-24T02:17:06.249Z,20.10
2018-12-24T02:18:06.207Z,19.60
2018-12-24T02:19:06.164Z,20.00
2018-12-24T02:20:06.116Z,20.30
2018-12-24T02:21:06.102Z,20.10
2018-12-24T02:22:12.844Z,20.60
2018-12-24T02:23:05.986Z,20.80
2018-12-24T02:24:05.942Z,20.70
2018-12-24T02:25:05.903Z,20.90
2018-12-24T02:26:05.844Z,21.00
2018-12-24T02:27:05.834Z,20.30
2018-12-24T02:28:05.763Z,21.30
2018-12-24T02:29:05.717Z,21.40
2018-12-24T02:30:05.687Z,21.50
2018-12-24T02:31:05.637Z,21.40
2018-12-24T02:32:05.593Z,21.40
2018-12-24T02:33:05.577Z,21.20
2018-12-24T02:34:05.502Z,21.20
2018-12-24T02:35:05.452Z,20.70
2018-12-24T02:36:05.417Z,21.00
2018-12-24T02:37:05.368Z,21.20
2018-12-24T02:38:05.353Z,21.90
2018-12-24T02:39:05.276Z,21.60
2018-12-24T02:40:05.233Z,21.70
2018-12-24T02:41:05.188Z,21.60
2018-12-24T02:42:05.155Z,21.20
2018-12-24T02:43:05.115Z,21.40
2018-12-24T02:44:05.088Z,21.10
2018-12-24T02:45:05.021Z,21.40
2018-12-24T02:46:04.974Z,21.40
2018-12-24T02:47:04.932Z,22.10
2018-12-24T02:48:04.889Z,21.60
2018-12-24T02:49:04.872Z,21.10
2018-12-24T02:50:04.804Z,21.80
2018-12-24T02:51:04.759Z,21.40
2018-12-24T02:52:04.714Z,21.40
2018-12-24T02:53:04.667Z,21.00
2018-12-24T02:54:04.627Z,21.20
2018-12-24T02:55:04.613Z,21.90
2018-12-24T02:56:04.539Z,21.60
2018-12-24T02:57:04.496Z,21.70
2018-12-24T02:58:04.443Z,21.90
2018-12-24T02:59:04.403Z,21.70
2018-12-24T03:00:04.359Z,20.90
2018-12-24T03:01:04.353Z,22.00
2018-12-24T03:02:04.307Z,21.70
2018-12-24T03:03:04.235Z,20.90
2018-12-24T03:04:04.193Z,20.70
2018-12-24T03:05:04.145Z,21.50
2018-12-24T03:06:04.103Z,21.10
2018-12-24T03:07:04.048Z,20.60
2018-12-24T03:08:04.039Z,21.00
2018-12-24T03:09:03.965Z,20.40
2018-12-24T03:10:03.924Z,20.20
2018-12-24T03:11:03.883Z,20.10
2018-12-24T03:12:03.857Z,20.40
2018-12-24T03:13:03.786Z,19.70
2018-12-24T03:14:03.757Z,19.20
2018-12-24T03:15:03.704Z,19.60
2018-12-24T03:16:03.667Z,19.50
2018-12-24T03:17:03.623Z,19.30
2018-12-24T03:18:03.708Z,18.70
2018-12-24T03:19:03.525Z,18.90
2018-12-24T03:20:03.485Z,19.30
2018-12-24T03:21:03.438Z,18.80
2018-12-24T03:22:03.402Z,19.70
2018-12-24T03:23:03.383Z,19.30
2018-12-24T03:24:03.307Z,18.70
2018-12-24T03:25:03.291Z,18.90
2018-12-24T03:26:03.230Z,19.30
2018-12-24T03:27:03.180Z,17.80
2018-12-24T03:28:10.786Z,18.90
2018-12-24T03:29:12.282Z,19.80
2018-12-24T03:30:12.837Z,19.60
2018-12-24T03:31:03.023Z,19.10
2018-12-24T03:32:02.967Z,19.50
2018-12-24T03:33:02.961Z,19.80
2018-12-24T03:34:02.881Z,19.00
2018-12-24T03:35:02.840Z,20.30
2018-12-24T03:36:02.815Z,20.10
2018-12-24T03:37:02.743Z,19.80
2018-12-24T03:38:02.693Z,19.40
2018-12-24T03:39:02.650Z,19.00
2018-12-24T03:40:02.630Z,19.10
2018-12-24T03:41:02.602Z,19.00
2018-12-24T03:42:02.531Z,19.30
2018-12-24T03:43:12.113Z,19.80
2018-12-24T03:44:02.441Z,19.60
2018-12-24T03:45:02.408Z,18.90
2018-12-24T03:46:02.372Z,18.60
2018-12-24T03:47:02.322Z,19.40
2018-12-24T03:48:02.270Z,18.60
2018-12-24T03:49:02.229Z,18.90
2018-12-24T03:50:02.191Z,19.00
2018-12-24T03:51:02.146Z,18.50
2018-12-24T03:52:02.093Z,18.50
2018-12-24T03:53:02.043Z,18.50
2018-12-24T03:54:01.997Z,18.40
2018-12-24T03:55:01.981Z,19.00
2018-12-24T03:56:01.936Z,18.90
2018-12-24T03:57:01.862Z,18.60
2018-12-24T03:58:01.827Z,19.20
2018-12-24T03:59:01.784Z,19.20
2018-12-24T04:00:01.753Z,18.10
2018-12-24T04:01:01.717Z,18.40
2018-12-24T04:02:01.686Z,19.00
2018-12-24T04:03:01.610Z,18.80
2018-12-24T04:04:01.567Z,18.60
2018-12-24T04:05:01.527Z,18.40
2018-12-24T04:06:01.508Z,18.10
2018-12-24T04:07:01.445Z,18.00
2018-12-24T04:08:01.393Z,18.20
2018-12-24T04:09:01.344Z,18.80
2018-12-24T04:10:01.288Z,18.10
2018-12-24T04:11:01.277Z,18.20
2018-12-24T04:12:01.232Z,18.70
2018-12-24T04:13:01.175Z,18.30
2018-12-24T04:14:01.136Z,18.20
2018-12-24T04:15:01.112Z,18.10
2018-12-24T04:16:01.099Z,19.10
2018-12-24T04:17:01.022Z,18.20
2018-12-24T04:18:00.953Z,18.40
2018-12-24T04:19:00.909Z,18.20
2018-12-24T04:20:00.877Z,18.20
2018-12-24T04:21:00.840Z,17.90
2018-12-24T04:22:00.798Z,17.50
2018-12-24T04:23:00.758Z,17.50
2018-12-24T04:24:00.705Z,17.90
2018-12-24T04:25:00.684Z,17.40
2018-12-24T04:26:00.612Z,17.50
2018-12-24T04:27:00.572Z,18.30
2018-12-24T04:28:00.522Z,19.20
2018-12-24T04:29:00.470Z,18.60
2018-12-24T04:30:00.439Z,18.70
2018-12-24T04:31:00.383Z,18.40
2018-12-24T04:32:00.342Z,18.70
2018-12-24T04:33:00.297Z,18.20
2018-12-24T04:34:00.253Z,18.70
2018-12-24T04:35:00.290Z,19.00
2018-12-24T04:36:00.180Z,18.30
2018-12-24T04:37:00.132Z,18.60
2018-12-24T04:38:00.086Z,18.20
2018-12-24T04:39:00.047Z,18.60
2018-12-24T04:40:00.022Z,18.60
2018-12-24T04:40:59.949Z,18.40
2018-12-24T04:41:59.956Z,18.40
2018-12-24T04:42:59.846Z,17.90
2018-12-24T04:43:59.846Z,18.50
2018-12-24T04:44:59.810Z,17.00
2018-12-24T04:45:59.743Z,17.00
2018-12-24T04:46:59.683Z,17.50
2018-12-24T04:47:59.838Z,17.30
2018-12-24T04:48:59.610Z,17.60
2018-12-24T04:49:59.551Z,17.60
2018-12-24T04:50:59.539Z,17.60
2018-12-24T04:51:59.473Z,17.70
2018-12-24T04:52:59.444Z,18.10
2018-12-24T04:53:59.390Z,19.70
2018-12-24T04:54:59.341Z,19.00
2018-12-24T04:55:59.338Z,19.80
2018-12-24T04:56:59.249Z,19.70
2018-12-24T04:57:59.201Z,19.00
2018-12-24T04:58:59.216Z,17.90
2018-12-24T04:59:59.111Z,18.50
2018-12-24T05:00:59.069Z,18.40
2018-12-24T05:01:59.053Z,17.50
2018-12-24T05:02:58.980Z,17.50
2018-12-24T05:03:58.985Z,17.30
2018-12-24T05:04:58.905Z,17.90
2018-12-24T05:05:58.856Z,18.00
2018-12-24T05:06:58.825Z,17.30
2018-12-24T05:07:58.758Z,17.80
2018-12-24T05:08:58.740Z,17.80
2018-12-24T05:09:58.726Z,17.40
2018-12-24T05:10:58.647Z,17.30
2018-12-24T05:11:58.578Z,17.70
2018-12-24T05:12:58.573Z,18.50
2018-12-24T05:13:58.530Z,18.30
2018-12-24T05:14:58.476Z,18.20
2018-12-24T05:15:58.424Z,18.00
2018-12-24T05:16:58.381Z,17.90
2018-12-24T05:17:58.331Z,18.10
2018-12-24T05:18:58.295Z,17.80
2018-12-24T05:19:58.270Z,17.50
2018-12-24T05:20:58.197Z,17.50
2018-12-24T05:21:58.171Z,18.10
2018-12-24T05:22:58.104Z,17.10
2018-12-24T05:23:58.071Z,17.80
2018-12-24T05:24:58.045Z,17.70
2018-12-24T05:25:58.017Z,17.40
2018-12-24T05:26:57.926Z,17.30
2018-12-24T05:27:57.890Z,17.90
2018-12-24T05:28:57.864Z,17.40
2018-12-24T05:29:57.823Z,18.00
2018-12-24T05:30:57.789Z,18.50
2018-12-24T05:31:57.726Z,17.40
2018-12-24T05:32:57.701Z,18.10
2018-12-24T05:33:57.615Z,18.60
2018-12-24T05:34:57.595Z,19.10
2018-12-24T05:35:57.556Z,17.60
2018-12-24T05:36:57.522Z,16.70
2018-12-24T05:37:57.472Z,17.80
2018-12-24T05:38:57.441Z,17.00
2018-12-24T05:39:57.375Z,16.80
2018-12-24T05:41:06.389Z,16.30
2018-12-24T05:42:06.376Z,16.30
2018-12-24T05:43:06.430Z,16.30
2018-12-24T05:43:57.202Z,16.30
2018-12-24T05:44:57.176Z,15.80
2018-12-24T05:45:57.112Z,15.40
2018-12-24T05:46:57.101Z,15.40
2018-12-24T05:47:57.020Z,15.10
2018-12-24T05:48:56.955Z,15.00
2018-12-24T05:49:56.954Z,14.80
2018-12-24T05:50:56.887Z,14.90
2018-12-24T05:51:56.887Z,15.20
2018-12-24T05:52:56.798Z,15.00
2018-12-24T05:53:56.755Z,14.70
2018-12-24T05:54:56.706Z,15.40
2018-12-24T05:55:56.666Z,15.40
2018-12-24T05:56:56.656Z,15.20
2018-12-24T05:57:56.576Z,15.00
2018-12-24T05:58:56.539Z,15.60
2018-12-24T05:59:56.482Z,14.90
2018-12-24T06:00:56.443Z,14.90
2018-12-24T06:01:56.404Z,14.90
2018-12-24T06:02:56.384Z,14.70
2018-12-24T06:03:56.340Z,15.80
2018-12-24T06:04:56.280Z,14.50
2018-12-24T06:05:56.217Z,14.00
2018-12-24T06:06:56.178Z,14.80
2018-12-24T06:07:56.164Z,13.90
2018-12-24T06:08:56.107Z,14.10
2018-12-24T06:09:56.039Z,14.90
2018-12-24T06:10:56.011Z,15.00
2018-12-24T06:11:56.238Z,14.90
2018-12-24T06:12:55.958Z,14.40
2018-12-24T06:13:58.126Z,14.90
2018-12-24T06:14:55.858Z,14.40
2018-12-24T06:15:55.811Z,14.40
2018-12-24T06:16:55.788Z,14.50
2018-12-24T06:17:57.638Z,14.90
2018-12-24T06:18:55.656Z,14.50
2018-12-24T06:19:55.633Z,14.20
2018-12-24T06:20:55.563Z,14.00
2018-12-24T06:21:55.542Z,14.90
2018-12-24T06:22:55.515Z,15.00
2018-12-24T06:23:55.451Z,14.90
2018-12-24T06:24:55.389Z,14.50
2018-12-24T06:25:55.769Z,14.70
2018-12-24T06:26:55.323Z,15.20
2018-12-24T06:27:55.306Z,15.10
2018-12-24T06:28:55.231Z,15.70
2018-12-24T06:29:55.187Z,14.80
2018-12-24T06:30:55.128Z,14.80
2018-12-24T06:31:55.100Z,14.90
2018-12-24T06:32:55.034Z,14.50
2018-12-24T06:33:55.038Z,14.70
2018-12-24T06:34:54.961Z,14.90
2018-12-24T06:35:54.912Z,14.40
2018-12-24T06:36:54.887Z,14.70
2018-12-24T06:37:54.819Z,15.70
2018-12-24T06:38:54.829Z,14.80
2018-12-24T06:39:54.745Z,14.70
2018-12-24T06:40:54.702Z,15.20
2018-12-24T06:41:54.634Z,15.30
2018-12-24T06:42:54.603Z,14.80
2018-12-24T06:43:54.607Z,14.70
2018-12-24T06:44:54.579Z,15.10
2018-12-24T06:45:54.472Z,13.80
2018-12-24T06:46:54.436Z,14.20
2018-12-24T06:47:54.400Z,13.80
2018-12-24T06:48:54.350Z,13.50
2018-12-24T06:49:54.318Z,13.10
2018-12-24T06:50:54.274Z,12.90
2018-12-24T06:51:54.217Z,13.40
2018-12-24T06:52:54.175Z,13.20
2018-12-24T06:53:54.149Z,12.90
2018-12-24T06:54:54.094Z,12.80
2018-12-24T06:55:54.082Z,12.70
2018-12-24T06:56:54.007Z,12.30
2018-12-24T06:57:53.959Z,12.60
2018-12-24T06:58:53.916Z,12.50
2018-12-24T06:59:53.860Z,11.40
2018-12-24T07:00:53.855Z,11.70
2018-12-24T07:01:53.797Z,11.50
2018-12-24T07:02:53.742Z,11.70
2018-12-24T07:03:53.693Z,11.20
2018-12-24T07:04:53.650Z,10.50
2018-12-24T07:05:53.646Z,10.00
2018-12-24T07:06:53.560Z,10.70
2018-12-24T07:07:53.504Z,10.60
2018-12-24T07:08:53.469Z,10.30
2018-12-24T07:09:53.440Z,10.50
2018-12-24T07:10:53.415Z,10.60
2018-12-24T07:11:53.387Z,9.90
2018-12-24T07:12:53.321Z,9.60
2018-12-24T07:13:53.251Z,9.70
2018-12-24T07:14:53.215Z,9.60
2018-12-24T07:15:53.180Z,10.10
2018-12-24T07:16:53.181Z,9.80
2018-12-24T07:17:53.074Z,9.90
2018-12-24T07:18:53.036Z,10.00
2018-12-24T07:19:52.983Z,9.70
2018-12-24T07:20:52.953Z,9.60
2018-12-24T07:21:52.958Z,9.60
2018-12-24T07:22:52.872Z,9.40
2018-12-24T07:23:52.818Z,9.20
2018-12-24T07:24:52.796Z,8.80
2018-12-24T07:25:52.719Z,9.20
2018-12-24T07:26:52.707Z,8.90
2018-12-24T07:27:52.640Z,8.40
2018-12-24T07:28:59.003Z,9.00
2018-12-24T07:29:52.587Z,8.90
2018-12-24T07:30:52.538Z,8.20
2018-12-24T07:31:52.476Z,8.60
2018-12-24T07:32:52.436Z,8.10
2018-12-24T07:33:52.406Z,8.10
2018-12-24T07:34:52.338Z,8.80
2018-12-24T07:35:52.304Z,8.30
2018-12-24T07:36:52.254Z,8.40
2018-12-24T07:37:52.219Z,8.00
2018-12-24T07:38:52.156Z,8.10
2018-12-24T07:39:52.121Z,8.00
2018-12-24T07:40:52.063Z,8.40
2018-12-24T07:41:52.040Z,8.40
2018-12-24T07:42:52.002Z,8.40
2018-12-24T07:43:52.020Z,8.30
2018-12-24T07:44:51.896Z,8.40
2018-12-24T07:45:51.877Z,9.20
2018-12-24T07:46:51.824Z,9.00
2018-12-24T07:47:51.783Z,8.70
2018-12-24T07:48:51.770Z,9.10
2018-12-24T07:49:51.670Z,9.30
2018-12-24T07:50:51.670Z,9.40
2018-12-24T07:51:51.602Z,9.00
2018-12-24T07:52:51.549Z,9.10
2018-12-24T07:53:51.570Z,9.20
2018-12-24T07:54:51.462Z,8.70
2018-12-24T07:55:51.428Z,9.20
2018-12-24T07:56:51.366Z,8.80
2018-12-24T07:57:51.317Z,8.90
2018-12-24T07:58:51.277Z,8.80
2018-12-24T07:59:51.292Z,8.80
2018-12-24T08:00:51.247Z,8.90
2018-12-24T08:01:51.153Z,8.60
2018-12-24T08:02:51.100Z,9.40
2018-12-24T08:03:51.075Z,8.90
2018-12-24T08:04:51.027Z,9.00
2018-12-24T08:05:51.004Z,9.80
2018-12-24T08:06:50.929Z,8.70
2018-12-24T08:07:50.893Z,8.90
2018-12-24T08:08:50.863Z,8.60
2018-12-24T08:09:50.795Z,8.50
2018-12-24T08:10:50.772Z,9.10
2018-12-24T08:11:50.710Z,9.00
2018-12-24T08:12:50.681Z,8.80
2018-12-24T08:13:50.645Z,9.20
2018-12-24T08:14:50.581Z,8.70
2018-12-24T08:15:50.602Z,8.50
2018-12-24T08:16:50.504Z,8.50
2018-12-24T08:17:50.467Z,8.50
2018-12-24T08:18:50.417Z,8.70
2018-12-24T08:19:50.375Z,8.20
2018-12-24T08:20:50.354Z,8.30
2018-12-24T08:21:50.297Z,8.80
2018-12-24T08:22:50.238Z,8.20
2018-12-24T08:23:50.192Z,8.20
2018-12-24T08:24:50.153Z,8.20
2018-12-24T08:25:50.113Z,8.20
2018-12-24T08:26:52.326Z,8.10
2018-12-24T08:27:50.017Z,8.10
2018-12-24T08:28:49.989Z,8.00
2018-12-24T08:29:49.929Z,8.30
2018-12-24T08:30:49.876Z,7.00
2018-12-24T08:31:49.866Z,7.40
2018-12-24T08:32:49.801Z,6.90
2018-12-24T08:33:49.760Z,7.10
2018-12-24T08:34:49.710Z,7.30
2018-12-24T08:35:49.663Z,7.50
2018-12-24T08:36:49.639Z,6.60
2018-12-24T08:37:49.597Z,6.50
2018-12-24T08:38:49.573Z,6.20
2018-12-24T08:39:49.492Z,6.10
2018-12-24T08:40:49.452Z,5.70
2018-12-24T08:41:49.398Z,6.00
2018-12-24T08:42:49.381Z,5.50
2018-12-24T08:43:49.310Z,5.60
2018-12-24T08:44:49.271Z,5.30
2018-12-24T08:45:49.240Z,5.60
2018-12-24T08:46:49.197Z,4.60
2018-12-24T08:47:49.174Z,4.70
2018-12-24T08:48:49.205Z,4.80
2018-12-24T08:49:49.168Z,4.70
2018-12-24T08:50:49.031Z,4.70
2018-12-24T08:51:49.113Z,4.40
2018-12-24T08:52:48.946Z,4.70
2018-12-24T08:53:49.013Z,5.00
2018-12-24T08:54:48.878Z,4.60
2018-12-24T08:55:48.925Z,4.80
2018-12-24T08:56:49.061Z,4.70
2018-12-24T08:57:48.909Z,4.60
2018-12-24T08:58:49.055Z,4.50
2018-12-24T08:59:48.646Z,4.20
2018-12-24T09:00:48.588Z,4.60
2018-12-24T09:01:48.613Z,4.60
2018-12-24T09:02:48.578Z,4.30
2018-12-24T09:03:48.596Z,4.80
2018-12-24T09:04:48.596Z,4.70
2018-12-24T09:05:48.601Z,4.50
2018-12-24T09:06:48.483Z,4.70
2018-12-24T09:07:48.452Z,4.30
2018-12-24T09:08:48.267Z,4.30
2018-12-24T09:09:48.206Z,4.30
2018-12-24T09:10:48.147Z,4.50
2018-12-24T09:11:48.123Z,4.70
2018-12-24T09:12:48.085Z,3.90
2018-12-24T09:13:48.027Z,4.30
2018-12-24T09:14:50.291Z,4.30
2018-12-24T09:15:47.943Z,4.80
2018-12-24T09:16:47.911Z,4.90
2018-12-24T09:17:47.869Z,4.30
2018-12-24T09:18:47.799Z,4.30
2018-12-24T09:19:47.751Z,4.20
2018-12-24T09:20:52.641Z,4.40
2018-12-24T09:21:47.712Z,4.20
2018-12-24T09:22:47.627Z,4.20
2018-12-24T09:23:47.615Z,4.30
2018-12-24T09:24:47.600Z,4.50
2018-12-24T09:25:47.511Z,4.50
2018-12-24T09:26:47.466Z,3.90
2018-12-24T09:27:47.423Z,4.30
2018-12-24T09:28:47.376Z,4.20
2018-12-24T09:29:47.346Z,4.40
2018-12-24T09:30:47.284Z,4.40
2018-12-24T09:31:47.258Z,4.20
2018-12-24T09:32:47.198Z,4.60
2018-12-24T09:33:47.143Z,4.10
2018-12-24T09:34:47.119Z,4.00
2018-12-24T09:35:47.188Z,4.00
2018-12-24T09:36:47.045Z,3.90
2018-12-24T09:37:46.977Z,3.60
2018-12-24T09:38:46.941Z,3.90
2018-12-24T09:39:46.896Z,3.80
2018-12-24T09:40:46.863Z,3.90
2018-12-24T09:41:46.804Z,3.60
2018-12-24T09:42:46.782Z,3.70
2018-12-24T09:43:46.720Z,3.70
2018-12-24T09:44:46.681Z,3.30
2018-12-24T09:45:46.663Z,3.10
2018-12-24T09:46:46.581Z,3.00
2018-12-24T09:47:46.565Z,3.10
2018-12-24T09:48:46.501Z,2.90
2018-12-24T09:49:46.465Z,2.90
2018-12-24T09:50:46.408Z,2.90
2018-12-24T09:51:46.418Z,2.80
2018-12-24T09:52:46.350Z,2.70
2018-12-24T09:53:46.287Z,2.80
2018-12-24T09:54:46.249Z,2.40
2018-12-24T09:55:46.204Z,2.40
2018-12-24T09:56:46.163Z,2.60
2018-12-24T09:57:46.141Z,2.20
2018-12-24T09:58:46.084Z,2.50
2018-12-24T09:59:46.041Z,2.30
2018-12-24T10:00:46.006Z,2.40
2018-12-24T10:01:45.974Z,2.80
2018-12-24T10:02:45.938Z,2.50
2018-12-24T10:03:45.870Z,2.30
2018-12-24T10:04:54.973Z,2.50
2018-12-24T10:05:45.800Z,2.50
2018-12-24T10:06:45.753Z,2.60
2018-12-24T10:07:45.738Z,2.30
2018-12-24T10:08:45.658Z,2.50
2018-12-24T10:09:45.613Z,2.20
2018-12-24T10:10:45.581Z,2.80
2018-12-24T10:11:45.539Z,2.40
2018-12-24T10:12:45.521Z,2.50
2018-12-24T10:13:45.458Z,2.10
2018-12-24T10:14:45.458Z,2.30
2018-12-24T10:15:45.409Z,2.10
2018-12-24T10:16:45.346Z,2.10
2018-12-24T10:17:45.305Z,1.90
2018-12-24T10:18:45.245Z,2.20
2018-12-24T10:19:45.215Z,2.20
2018-12-24T10:20:45.250Z,2.10
2018-12-24T10:21:45.160Z,2.00
2018-12-24T10:22:45.111Z,1.90
2018-12-24T10:23:45.062Z,2.10
2018-12-24T10:24:45.025Z,2.10
2018-12-24T10:25:44.978Z,2.00
2018-12-24T10:26:44.946Z,1.70
2018-12-24T10:27:44.951Z,1.70
2018-12-24T10:28:44.879Z,1.80
2018-12-24T10:29:44.866Z,1.60
2018-12-24T10:30:44.773Z,1.60
2018-12-24T10:31:44.754Z,1.80
2018-12-24T10:32:44.703Z,1.70
2018-12-24T10:33:44.709Z,1.70
2018-12-24T10:34:44.650Z,1.60
2018-12-24T10:35:44.586Z,1.70
2018-12-24T10:36:44.580Z,1.70
2018-12-24T10:37:44.525Z,1.70
2018-12-24T10:38:44.507Z,1.70
2018-12-24T10:39:44.466Z,1.80
2018-12-24T10:40:44.436Z,1.80
2018-12-24T10:41:44.361Z,1.60
2018-12-24T10:42:44.357Z,1.70
2018-12-24T10:43:44.292Z,1.70
2018-12-24T10:44:44.281Z,1.80
2018-12-24T10:45:44.228Z,1.70
2018-12-24T10:46:44.214Z,1.60
2018-12-24T10:47:44.142Z,1.50
2018-12-24T10:48:44.110Z,1.60
2018-12-24T10:49:44.066Z,1.50
2018-12-24T10:50:44.066Z,1.50
2018-12-24T10:51:44.045Z,1.50
2018-12-24T10:52:43.969Z,1.50
2018-12-24T10:53:43.916Z,1.60
2018-12-24T10:54:43.892Z,1.20
2018-12-24T10:55:43.864Z,1.40
2018-12-24T10:56:43.799Z,1.30
2018-12-24T10:57:43.782Z,1.50
2018-12-24T10:58:43.731Z,1.60
2018-12-24T10:59:43.694Z,1.50
2018-12-24T11:00:43.688Z,1.60
2018-12-24T11:01:44.684Z,1.60
2018-12-24T11:02:43.581Z,1.60
2018-12-24T11:03:43.555Z,1.50
2018-12-24T11:04:43.511Z,1.50
2018-12-24T11:05:43.513Z,1.50
2018-12-24T11:06:43.420Z,1.40
2018-12-24T11:07:43.386Z,1.30
2018-12-24T11:08:43.352Z,1.40
2018-12-24T11:09:43.319Z,1.30
2018-12-24T11:10:43.318Z,1.40
2018-12-24T11:11:43.254Z,1.50
2018-12-24T11:12:43.199Z,1.40
2018-12-24T11:13:43.168Z,1.60
2018-12-24T11:14:43.138Z,1.60
2018-12-24T11:15:43.090Z,1.40
2018-12-24T11:16:43.093Z,1.60
2018-12-24T11:17:43.047Z,1.60
2018-12-24T11:18:42.978Z,1.50
2018-12-24T11:19:42.932Z,1.50
2018-12-24T11:20:42.905Z,1.50
2018-12-24T11:21:42.861Z,1.50
2018-12-24T11:22:42.840Z,1.60
2018-12-24T11:23:42.791Z,1.50
2018-12-24T11:24:42.753Z,1.60
2018-12-24T11:25:42.720Z,1.60
2018-12-24T11:26:42.699Z,1.70
2018-12-24T11:27:42.666Z,1.60
2018-12-24T11:28:42.604Z,1.60
2018-12-24T11:29:42.548Z,1.60
2018-12-24T11:30:42.544Z,1.80
2018-12-24T11:31:42.554Z,1.80
2018-12-24T11:32:42.455Z,1.60
2018-12-24T11:33:42.445Z,1.50
2018-12-24T11:34:42.385Z,1.60
2018-12-24T11:35:42.342Z,1.60
2018-12-24T11:36:42.304Z,1.90
2018-12-24T11:37:42.367Z,1.70
2018-12-24T11:38:42.291Z,1.90
2018-12-24T11:39:42.201Z,1.90
2018-12-24T11:40:42.382Z,1.70
2018-12-24T11:41:42.208Z,1.80
2018-12-24T11:42:42.223Z,1.70
2018-12-24T11:43:42.179Z,1.90
2018-12-24T11:44:42.043Z,1.70
2018-12-24T11:45:41.991Z,1.70
2018-12-24T11:46:41.949Z,1.80
2018-12-24T11:47:41.901Z,1.60
2018-12-24T11:48:41.880Z,1.70
2018-12-24T11:49:41.810Z,1.80
2018-12-24T11:50:41.804Z,1.70
2018-12-24T11:51:41.724Z,1.70
2018-12-24T11:52:41.706Z,1.70
2018-12-24T11:53:41.671Z,1.90
2018-12-24T11:54:41.585Z,1.90
2018-12-24T11:55:41.554Z,1.90
2018-12-24T11:56:41.526Z,2.00
2018-12-24T11:57:41.499Z,2.10
2018-12-24T11:58:41.464Z,1.90
2018-12-24T11:59:41.416Z,1.80
2018-12-24T12:00:41.383Z,2.00
2018-12-24T12:01:41.356Z,2.10
2018-12-24T12:02:41.297Z,2.10
2018-12-24T12:03:41.287Z,2.00
2018-12-24T12:04:41.223Z,2.00
2018-12-24T12:05:41.189Z,2.10
2018-12-24T12:06:41.145Z,2.20
2018-12-24T12:07:41.118Z,2.10
2018-12-24T12:08:41.110Z,2.00
2018-12-24T12:09:41.030Z,2.20
2018-12-24T12:10:41.015Z,2.00
2018-12-24T12:11:41.000Z,2.30
2018-12-24T12:12:40.989Z,2.00
2018-12-24T12:13:40.926Z,2.00
2018-12-24T12:14:40.823Z,2.20
2018-12-24T12:15:42.807Z,2.20
2018-12-24T12:16:40.807Z,2.10
2018-12-24T12:17:40.703Z,2.00
2018-12-24T12:18:40.732Z,2.10
2018-12-24T12:19:40.632Z,2.20
2018-12-24T12:20:40.608Z,2.00
2018-12-24T12:21:40.544Z,2.50
2018-12-24T12:22:40.574Z,2.10
2018-12-24T12:23:40.476Z,2.30
2018-12-24T12:24:40.464Z,2.20
2018-12-24T12:25:40.392Z,2.20
2018-12-24T12:26:40.357Z,2.40
2018-12-24T12:27:40.330Z,2.60
2018-12-24T12:28:40.312Z,2.40
2018-12-24T12:29:40.271Z,2.60
2018-12-24T12:30:40.209Z,2.40
2018-12-24T12:31:40.164Z,2.60
2018-12-24T12:32:40.128Z,2.60
2018-12-24T12:33:40.089Z,2.50
2018-12-24T12:34:40.059Z,2.50
2018-12-24T12:35:40.053Z,2.60
2018-12-24T12:36:39.982Z,2.80
2018-12-24T12:37:40.019Z,2.50
2018-12-24T12:38:39.886Z,2.60
2018-12-24T12:39:39.882Z,2.20
2018-12-24T12:40:39.853Z,2.30
2018-12-24T12:41:39.761Z,2.20
2018-12-24T12:42:39.739Z,2.40
2018-12-24T12:43:39.677Z,2.20
2018-12-24T12:44:39.637Z,2.20
2018-12-24T12:45:39.648Z,2.10
2018-12-24T12:46:39.572Z,2.10
2018-12-24T12:47:39.503Z,2.10
2018-12-24T12:48:39.479Z,2.20
2018-12-24T12:49:39.439Z,2.20
2018-12-24T12:50:39.438Z,2.20
2018-12-24T12:51:39.379Z,2.20
2018-12-24T12:52:39.333Z,2.10
2018-12-24T12:53:39.275Z,2.00
2018-12-24T12:54:39.217Z,2.10
2018-12-24T12:55:39.211Z,2.00
2018-12-24T12:56:39.166Z,1.90
2018-12-24T12:57:39.115Z,1.90
2018-12-24T12:58:39.041Z,2.30
2018-12-24T12:59:39.006Z,1.90
2018-12-24T13:00:38.964Z,2.20
2018-12-24T13:01:39.018Z,2.00
2018-12-24T13:02:38.878Z,1.90
2018-12-24T13:03:38.867Z,2.30